• Join FlightAware (Why Join?)
  • Login
  • US Flag 
12:17AM EDT


 

Airport Tracker/Info


-or-


 

Live Flight TrackerFlight Track Log ✈ N75ZM ✈ 25-Apr-2013 ✈ KCHS - KPDK

Flight Track Log - Related Links

Times and Time Zones

All times are in EDT time to prevent confusion due to time zone crossing. See the N75ZM flight status page for this flight to view local times or setup timezone preferences in your user account.

Time Position Orientation Groundspeed Altitude Reporting Facility
EDT Latitude Longitude Course Direction KTS MPH feet Rate Location/Type
10:03PM 32.9495 -80.2725 285° West  Level FlightAware Approximate
10:04PM 32.9585 -80.3131 285° West  Level FlightAware Approximate
10:05PM 32.9678 -80.3535 292° West  Level FlightAware Approximate
10:06PM 32.9809 -80.3926 292° West  Level FlightAware Approximate
10:07PM 32.9911 -80.4328 286° West  Level FlightAware Approximate
10:08PM 33.0006 -80.4733 286° West  Level FlightAware Approximate
10:08PM 33.0381 -80.4269 286° West 149 171 8,100  Level Jacksonville Center
10:09PM 33.0101 -80.5137 286° West  Level FlightAware Approximate
10:09PM 33.0472 -80.4714 284° West 149 171 8,100  Level Jacksonville Center
10:10PM 33.0196 -80.5542 286° West  Level FlightAware Approximate
10:10PM 33.0586 -80.5183 286° West 149 171 8,100  Level Jacksonville Center
10:11PM 33.0290 -80.5947 286° West  Level FlightAware Approximate
10:11PM 33.0700 -80.5650 286° West 149 171 8,100  Level Jacksonville Center
10:12PM 33.0385 -80.6352 286° West  Level FlightAware Approximate
10:12PM 33.0811 -80.6119 286° West 149 171 8,100  Level Jacksonville Center
10:13PM 33.0480 -80.6757 286° West  Level FlightAware Approximate
10:13PM 33.0925 -80.6586 286° West 144 166 8,100  Level Jacksonville Center
10:14PM 33.1017 -80.7081 282° West 144 166 8,100  Level Jacksonville Center
10:15PM 33.1128 -80.7547 286° West 144 166 8,100  Level Jacksonville Center
10:16PM 33.1242 -80.8017 286° West 144 166 8,100  Level Jacksonville Center
10:17PM 33.1353 -80.8486 286° West 144 166 8,100  Level Jacksonville Center
10:18PM 33.1464 -80.8931 287° West 144 166 8,100  Level Jacksonville Center
10:19PM 33.1578 -80.9422 285° West 144 166 8,100  Level Jacksonville Center
10:20PM 33.1667 -80.9892 283° West 144 166 8,100  Level Jacksonville Center
10:21PM 33.1778 -81.0361 286° West 144 166 8,100  Level Jacksonville Center
10:22PM 33.1892 -81.0856 285° West 144 166 8,100  Level Jacksonville Center
10:23PM 33.2003 -81.1325 286° West 144 166 8,100  Level Jacksonville Center
10:25PM 33.2157 -81.2098 283° West  Level FlightAware Approximate
10:32PM 33.2794 -81.5216 285° West  Level FlightAware Approximate
10:33PM 33.2896 -81.5658 285° West  Level FlightAware Approximate
10:34PM 33.2998 -81.6100 285° West  Level FlightAware Approximate
10:35PM 33.3100 -81.6542 285° West  Level FlightAware Approximate
10:36PM 33.3200 -81.6985 285° West  Level FlightAware Approximate
10:37PM 33.3297 -81.7429 285° West  Level FlightAware Approximate
10:38PM 33.3393 -81.7873 285° West  Level FlightAware Approximate
10:39PM 33.3490 -81.8317 285° West  Level FlightAware Approximate
10:40PM 33.3586 -81.8762 285° West  Level FlightAware Approximate
10:41PM 33.3683 -81.9206 285° West  Level FlightAware Approximate
10:42PM 33.3779 -81.9651 285° West  Level FlightAware Approximate
10:43PM 33.3875 -82.0095 285° West  Level FlightAware Approximate
10:44PM 33.3970 -82.0540 284° West  Level FlightAware Approximate
10:45PM 33.4066 -82.0985 284° West  Level FlightAware Approximate
10:46PM 33.4161 -82.1430 284° West  Level FlightAware Approximate
10:47PM 33.4257 -82.1874 284° West  Level FlightAware Approximate
10:48PM 33.4352 -82.2319 284° West  Level FlightAware Approximate
10:49PM 33.4447 -82.2765 284° West  Level FlightAware Approximate
10:50PM 33.4542 -82.3210 284° West  Level FlightAware Approximate
10:51PM 33.4636 -82.3655 284° West  Level FlightAware Approximate
10:52PM 33.4731 -82.4100 284° West  Level FlightAware Approximate
10:53PM 33.4825 -82.4546 284° West  Level FlightAware Approximate
10:54PM 33.4919 -82.4992 284° West  Level FlightAware Approximate
10:55PM 33.5013 -82.5437 284° West  Level FlightAware Approximate
10:55PM 33.5492 -82.7253 284° West 155 178 8,100  Level Atlanta Center
10:56PM 33.5107 -82.5883 284° West  Level FlightAware Approximate
10:56PM 33.5603 -82.7750 285° West 155 178 8,100  Level Atlanta Center
10:57PM 33.5201 -82.6329 284° West  Level FlightAware Approximate
10:57PM 33.5692 -82.8222 283° West 160 184 8,100  Level Atlanta Center
10:58PM 33.5294 -82.6775 284° West  Level FlightAware Approximate
10:58PM 33.5778 -82.8719 282° West 160 184 8,100  Level Atlanta Center
10:59PM 33.5388 -82.7221 284° West  Level FlightAware Approximate
10:59PM 33.5889 -82.9217 285° West 160 184 8,100  Level Atlanta Center
11:00PM 33.5481 -82.7667 284° West  Level FlightAware Approximate
11:00PM 33.5997 -82.9689 285° West 160 184 8,100  Level Atlanta Center
11:01PM 33.5574 -82.8114 284° West  Level FlightAware Approximate
11:01PM 33.6106 -83.0186 285° West 160 184 8,100  Level Atlanta Center
11:02PM 33.6192 -83.0658 282° West 160 184 8,100  Level Atlanta Center
11:03PM 33.6300 -83.1158 285° West 160 184 8,100  Level Atlanta Center
11:04PM 33.6408 -83.1656 285° West 160 184 8,100  Level Atlanta Center
11:05PM 33.6517 -83.2153 285° West 160 184 8,100  Level Atlanta Center
11:06PM 33.6603 -83.2650 282° West 160 184 8,100  Level Atlanta Center
11:07PM 33.6731 -83.3150 287° West 160 184 8,100  Level Atlanta Center
11:08PM 33.6839 -83.3647 285° West 160 184 8,100  Level Atlanta Center
11:09PM 33.6925 -83.4147 282° West 160 184 8,100  Level Atlanta Center
11:10PM 33.7031 -83.4619 285° West 160 184 8,100  Level Atlanta Center
11:11PM 33.7139 -83.5094 285° West 160 184 8,100  Level Atlanta Center
11:12PM 33.7244 -83.5567 285° West 160 184 8,100  Level Atlanta Center
11:13PM 33.7350 -83.6142 282° West 160 184 8,200  Climbing Atlanta Center
11:14PM 33.7456 -83.6617 285° West 160 184 8,100 -300 Descending Atlanta Center
11:15PM 33.7564 -83.7189 283° West 160 184 7,600 -540 Descending Atlanta Center
11:16PM 33.7689 -83.7739 285° West 160 184 7,100 -540 Descending Atlanta Center
11:17PM 33.7817 -83.8289 286° West 165 190 6,600 -540 Descending Atlanta Center
11:18PM 33.7919 -83.8839 283° West 165 190 6,100 -540 Descending Atlanta Center
11:19PM 33.8047 -83.9414 285° West 170 196 5,600 -540 Descending Atlanta Center
11:20PM 33.8150 -83.9989 282° West 176 203 5,100 -540 Descending Atlanta Center